Time;durP1;ratioP1;P1;durP2;ratioP2;P2;SDS_P1;SDS_P2;PMS_P1;PMS_P2;Temp;Humidity;BMP_temperature;BMP_pressure;BME280_temperature;BME280_humidity;BME280_pressure;Samples;Min_cycle;Max_cycle;Signal;HPM_P1;HPM_P2
2022/04/05 00:02:10;;;;;;;;;;;;;;;5.77;89.86;99123.59;4977097;29;1210;-93
2022/04/05 00:04:41;;;;;;;;;;;;;;;5.75;90.39;99124.97;4978166;28;1281;-91
2022/04/05 00:07:06;;;;;;;;;;;;;;;5.75;90.09;99122.25;4980135;28;1289;-91
2022/04/05 00:09:31;;;;;;;;;;;;;;;5.76;89.87;99123.88;4980244;28;1277;-89
2022/04/05 00:11:57;;;;;;;;;;;;;;;5.76;89.94;99121.97;4980164;28;1170;-90
2022/04/05 00:14:22;;;;;;;;;;;;;;;5.76;90.58;99123.88;4979893;28;1449;-90
2022/04/05 00:16:47;;;;;;;;;;;;;;;5.78;90.86;99124.41;4979900;28;1520;-92
2022/04/05 00:19:12;;;;;;;;;;;;;;;5.77;91.04;99111.94;4979985;28;1934;-90
2022/04/05 00:21:38;;;;;;;;;;;;;;;5.77;90.83;99122.78;4980114;28;1222;-90
2022/04/05 00:24:05;;;;;;;;;;;;;;;5.79;90.66;99115.97;4979029;28;1537;-92
2022/04/05 00:26:31;;;;;;;;;;;;;;;5.82;90.92;99114.59;4979996;28;1588;-91
2022/04/05 00:28:56;;;;;;;;;;;;;;;5.81;91.16;99116.50;4979890;28;1249;-91
2022/04/05 00:31:21;;;;;;;;;;;;;;;5.84;90.71;99123.28;4979934;28;1071;-91
2022/04/05 00:33:46;;;;;;;;;;;;;;;5.66;90.70;99098.44;4979673;28;1236;-91
2022/04/05 00:36:12;;;;;;;;;;;;;;;5.79;91.35;99120.59;4979714;28;1152;-90
2022/04/05 00:38:37;;;;;;;;;;;;;;;5.78;90.39;99119.00;4979918;28;1930;-91
2022/04/05 00:41:02;;;;;;;;;;;;;;;5.77;90.87;99115.47;4980465;28;830;-90
2022/04/05 00:43:27;;;;;;;;;;;;;;;5.76;90.76;99111.13;4979736;28;1227;-90
2022/04/05 00:45:55;;;;;;;;;;;;;;;5.73;90.73;99111.69;4979733;28;1344;-91
2022/04/05 00:48:27;;;;;;;;;;;;;;;5.62;90.83;99093.81;4979811;28;1436;-91
2022/04/05 00:50:52;;;;;;;;;;;;;;;5.55;90.66;99096.88;4979780;28;1205;-91
2022/04/05 00:53:19;;;;;;;;;;;;;;;5.56;91.13;99093.06;4977693;28;1281;-91
2022/04/05 00:55:47;;;;;;;;;;;;;;;5.53;91.05;99092.84;4976250;28;1295;-92
2022/04/05 00:58:14;;;;;;;;;;;;;;;5.54;91.82;99100.66;4959179;28;1932;-91
2022/04/05 01:00:40;;;;;;;;;;;;;;;5.54;91.67;99097.97;4959766;28;1524;-90
2022/04/05 01:03:05;;;;;;;;;;;;;;;5.54;91.80;99099.84;4979168;28;1288;-92
2022/04/05 01:05:32;;;;;;;;;;;;;;;5.59;91.74;99091.69;4979551;28;1304;-89
2022/04/05 01:07:59;;;;;;;;;;;;;;;5.62;91.54;99094.63;4979107;28;1144;-92
2022/04/05 01:10:25;;;;;;;;;;;;;;;5.56;91.07;99098.50;4979711;28;1246;-91
2022/04/05 01:12:50;;;;;;;;;;;;;;;5.56;91.28;99103.91;4979455;28;1533;-92
2022/04/05 01:15:16;;;;;;;;;;;;;;;5.61;91.27;99103.09;4979490;28;1114;-91
2022/04/05 01:17:41;;;;;;;;;;;;;;;5.63;90.80;99095.44;4979500;28;1880;-91
2022/04/05 01:20:08;;;;;;;;;;;;;;;5.63;91.35;99104.41;4975773;28;1265;-91
2022/04/05 01:22:34;;;;;;;;;;;;;;;5.62;91.25;99100.06;4965766;28;1486;-90
2022/04/05 01:24:59;;;;;;;;;;;;;;;5.57;91.53;99107.44;4970757;28;1391;-90
2022/04/05 01:27:27;;;;;;;;;;;;;;;5.55;91.30;99102.28;4960727;28;1218;-90
2022/04/05 01:29:53;;;;;;;;;;;;;;;5.57;92.16;99097.41;4962204;28;1484;-91
2022/04/05 01:32:18;;;;;;;;;;;;;;;5.53;91.34;99104.47;4979324;28;1387;-90
2022/04/05 01:34:43;;;;;;;;;;;;;;;5.49;91.39;99103.44;4978059;28;1470;-90
2022/04/05 01:37:10;;;;;;;;;;;;;;;5.51;92.17;99103.97;4981419;28;1372;-90
2022/04/05 01:39:36;;;;;;;;;;;;;;;5.47;91.74;99097.47;4982315;28;1886;-90
2022/04/05 01:42:03;;;;;;;;;;;;;;;5.47;91.58;99107.50;4982683;28;1500;-91
2022/04/05 01:44:28;;;;;;;;;;;;;;;5.52;92.07;99100.16;4982460;28;1246;-89
2022/04/05 01:46:54;;;;;;;;;;;;;;;5.53;91.52;99114.53;4982649;28;1167;-90
2022/04/05 01:49:19;;;;;;;;;;;;;;;5.56;92.09;99113.97;4984079;28;1288;-91
2022/04/05 01:51:45;;;;;;;;;;;;;;;5.53;91.38;99106.41;4981308;28;1308;-91
2022/04/05 01:54:11;;;;;;;;;;;;;;;5.45;91.21;99101.53;4979318;28;1644;-93
2022/04/05 01:56:47;;;;;;;;;;;;;;;5.46;91.64;99108.59;4980257;28;1454;-92
2022/04/05 01:59:20;;;;;;;;;;;;;;;5.48;92.09;99112.66;4977263;28;1942;-91
2022/04/05 02:01:46;;;;;;;;;;;;;;;5.48;91.62;99109.13;4978142;28;1206;-93
2022/04/05 02:04:11;;;;;;;;;;;;;;;5.58;91.27;99114.50;4978573;28;1327;-92
2022/04/05 02:06:40;;;;;;;;;;;;;;;5.61;91.81;99106.59;4976314;28;1509;-93
2022/04/05 02:09:06;;;;;;;;;;;;;;;5.62;91.08;99112.81;4975225;28;1470;-92
2022/04/05 02:11:37;;;;;;;;;;;;;;;5.62;91.76;99115.53;4979604;28;1328;-92
2022/04/05 02:14:04;;;;;;;;;;;;;;;5.59;90.58;99114.22;4979436;28;1383;-92
2022/04/05 02:16:29;;;;;;;;;;;;;;;5.59;90.65;99114.22;4976235;28;1119;-93
2022/04/05 02:18:55;;;;;;;;;;;;;;;5.58;91.69;99112.59;4973745;28;1879;-93
2022/04/05 02:21:20;;;;;;;;;;;;;;;5.58;90.88;99126.16;4974340;28;1219;-93
2022/04/05 02:23:48;;;;;;;;;;;;;;;5.57;90.40;99121.84;4972297;28;1217;-93
2022/04/05 02:26:13;;;;;;;;;;;;;;;5.60;89.78;99118.56;4973976;28;1159;-93
2022/04/05 02:28:38;;;;;;;;;;;;;;;5.57;90.43;99124.53;4971363;28;1309;-93
2022/04/05 02:31:06;;;;;;;;;;;;;;;5.57;90.28;99115.59;4974598;28;1436;-92
2022/04/05 02:33:31;;;;;;;;;;;;;;;5.57;89.86;99110.16;4980599;28;1368;-91
2022/04/05 02:35:56;;;;;;;;;;;;;;;5.60;89.88;99110.41;4981204;28;1217;-93
2022/04/05 02:38:22;;;;;;;;;;;;;;;5.62;90.86;99119.06;4980908;28;1936;-91
2022/04/05 02:40:47;;;;;;;;;;;;;;;5.58;90.35;99123.47;4980560;28;1293;-91
2022/04/05 02:43:12;;;;;;;;;;;;;;;5.61;90.64;99124.81;4981570;28;1453;-91
2022/04/05 02:45:37;;;;;;;;;;;;;;;5.61;90.63;99122.88;4981182;28;1288;-92
2022/04/05 02:48:03;;;;;;;;;;;;;;;5.57;90.17;99121.00;4980387;28;1210;-91
2022/04/05 04:25:06;;;;;;;;;;;;;;;5.61;92.21;99190.72;4954305;29;1611;-92
2022/04/05 04:27:33;;;;;;;;;;;;;;;5.63;91.83;99185.03;4954798;29;1197;-91
2022/04/05 04:29:58;;;;;;;;;;;;;;;5.59;91.81;99186.69;4954607;29;1324;-91
2022/04/05 04:32:23;;;;;;;;;;;;;;;5.58;92.31;99188.59;4954986;29;1304;-91
2022/04/05 04:34:48;;;;;;;;;;;;;;;5.60;92.86;99185.59;4954899;29;1240;-91
2022/04/05 04:37:14;;;;;;;;;;;;;;;5.59;92.42;99187.50;4954907;28;1364;-92
2022/04/05 04:39:39;;;;;;;;;;;;;;;5.64;91.92;99192.09;4954522;28;1961;-91
2022/04/05 04:42:05;;;;;;;;;;;;;;;5.67;91.76;99189.63;4954983;29;1218;-91
2022/04/05 04:44:30;;;;;;;;;;;;;;;5.68;92.12;99193.97;4954555;29;1081;-92
2022/04/05 04:46:55;;;;;;;;;;;;;;;5.72;91.92;99191.50;4955076;29;1323;-92
2022/04/05 04:49:20;;;;;;;;;;;;;;;5.72;91.18;99199.63;4947848;29;1535;-91
2022/04/05 04:52:03;;;;;;;;;;;;;;;5.72;90.80;99200.44;4948940;29;1502;-91
2022/04/05 04:57:31;;;;;;;;;;;;;;;5.78;90.73;99203.16;4941125;29;1262;-91
2022/04/05 05:03:01;;;;;;;;;;;;;;;5.80;89.82;99199.03;4955350;29;651;-91
2022/04/05 05:05:27;;;;;;;;;;;;;;;5.85;90.04;99211.78;4951289;29;1395;-91
2022/04/05 05:07:52;;;;;;;;;;;;;;;5.88;90.24;99209.34;4935191;29;1183;-91
2022/04/05 05:10:28;;;;;;;;;;;;;;;5.90;90.13;99215.31;4941611;28;1455;-91
2022/04/05 05:12:54;;;;;;;;;;;;;;;5.90;90.62;99218.03;4942276;29;1205;-91
2022/04/05 05:15:19;;;;;;;;;;;;;;;5.89;90.60;99218.31;4938867;29;1020;-91
2022/04/05 05:17:45;;;;;;;;;;;;;;;5.89;89.82;99219.13;4949423;29;1890;-91
2022/04/05 05:20:10;;;;;;;;;;;;;;;5.85;90.46;99228.91;4947532;29;1398;-91
2022/04/05 05:22:36;;;;;;;;;;;;;;;5.89;89.54;99232.69;4957944;29;1213;-91
2022/04/05 05:25:02;;;;;;;;;;;;;;;5.87;89.80;99234.84;4957525;29;1271;-91
2022/04/05 05:27:30;;;;;;;;;;;;;;;5.85;89.45;99237.06;4959466;29;902;-91
2022/04/05 05:29:55;;;;;;;;;;;;;;;5.85;89.36;99247.09;4958002;28;1259;-91
2022/04/05 05:32:21;;;;;;;;;;;;;;;5.87;89.93;99244.91;4957851;28;1200;-91
2022/04/05 05:34:46;;;;;;;;;;;;;;;5.89;89.93;99242.75;4957554;29;1221;-91
2022/04/05 05:37:11;;;;;;;;;;;;;;;5.88;89.45;99250.06;4957763;28;1170;-91
2022/04/05 05:39:39;;;;;;;;;;;;;;;5.93;90.10;99260.13;4957978;28;1969;-91
2022/04/05 05:42:05;;;;;;;;;;;;;;;5.93;88.89;99258.22;4957548;28;1292;-92
2022/04/05 05:44:31;;;;;;;;;;;;;;;5.95;88.99;99261.47;4957813;28;1353;-91
2022/04/05 05:46:56;;;;;;;;;;;;;;;6.00;88.75;99266.84;4957592;29;1375;-91
2022/04/05 05:49:21;;;;;;;;;;;;;;;6.04;88.85;99261.66;4957370;28;1221;-91
2022/04/05 05:51:46;;;;;;;;;;;;;;;6.05;88.43;99266.81;4957677;28;1041;-91
2022/04/05 05:54:12;;;;;;;;;;;;;;;6.12;88.34;99273.88;4958518;28;823;-91
2022/04/05 05:56:37;;;;;;;;;;;;;;;6.14;88.36;99277.91;4957458;29;1181;-91
2022/04/05 05:59:02;;;;;;;;;;;;;;;6.18;89.09;99287.13;4957402;28;1940;-91
2022/04/05 06:01:27;;;;;;;;;;;;;;;6.13;87.85;99294.47;4957111;29;1194;-91
2022/04/05 06:03:52;;;;;;;;;;;;;;;6.12;88.29;99290.97;4957458;29;1096;-91
2022/04/05 06:06:17;;;;;;;;;;;;;;;6.17;87.19;99292.84;4957185;29;1237;-91
2022/04/05 06:08:43;;;;;;;;;;;;;;;6.24;87.37;99301.47;4957179;29;1173;-91
2022/04/05 06:11:08;;;;;;;;;;;;;;;6.29;88.18;99306.91;4957110;28;1321;-91
2022/04/05 06:13:33;;;;;;;;;;;;;;;6.35;88.03;99306.59;4957027;29;1385;-91
2022/04/05 06:15:59;;;;;;;;;;;;;;;6.38;87.34;99302.50;4957165;28;1358;-91
2022/04/05 06:18:24;;;;;;;;;;;;;;;6.29;87.18;99312.34;4956836;28;1944;-91
2022/04/05 06:20:49;;;;;;;;;;;;;;;6.28;87.25;99308.00;4958146;28;1170;-91
2022/04/05 06:23:14;;;;;;;;;;;;;;;6.30;87.54;99309.31;4955457;28;1174;-91
2022/04/05 06:25:39;;;;;;;;;;;;;;;6.33;87.49;99311.47;4956846;29;1178;-91
2022/04/05 06:28:05;;;;;;;;;;;;;;;6.42;86.92;99301.63;4956869;28;1388;-91
2022/04/05 06:30:35;;;;;;;;;;;;;;;6.44;86.41;99304.09;4956631;28;1387;-91
2022/04/05 06:33:04;;;;;;;;;;;;;;;6.50;86.67;99311.09;4956571;28;1296;-91
2022/04/05 06:35:30;;;;;;;;;;;;;;;6.54;86.84;99316.78;4956820;29;1333;-91
2022/04/05 06:37:55;;;;;;;;;;;;;;;6.52;85.89;99308.09;4956814;28;1952;-91
2022/04/05 06:40:20;;;;;;;;;;;;;;;6.47;86.20;99307.03;4956802;28;1202;-91
2022/04/05 06:42:45;;;;;;;;;;;;;;;6.49;85.40;99316.81;4956544;28;846;-91
2022/04/05 06:45:11;;;;;;;;;;;;;;;6.44;85.35;99310.34;4956373;28;1282;-91
2022/04/05 06:47:37;;;;;;;;;;;;;;;6.47;85.07;99306.22;4956548;29;1224;-92
2022/04/05 06:50:03;;;;;;;;;;;;;;;6.51;84.69;99309.19;4956390;28;1283;-91
2022/04/05 06:52:28;;;;;;;;;;;;;;;6.50;84.88;99311.09;4956437;28;1288;-92
2022/04/05 06:54:54;;;;;;;;;;;;;;;6.49;84.72;99303.22;4956233;28;1274;-90
2022/04/05 06:57:19;;;;;;;;;;;;;;;6.49;84.82;99312.19;4956271;29;1309;-91
2022/04/05 06:59:44;;;;;;;;;;;;;;;6.52;84.91;99317.06;4956323;28;1907;-91
2022/04/05 07:02:11;;;;;;;;;;;;;;;6.68;84.90;99306.88;4956253;28;961;-91
2022/04/05 07:04:36;;;;;;;;;;;;;;;6.76;85.15;99306.28;4956393;28;1233;-91
2022/04/05 07:07:01;;;;;;;;;;;;;;;6.83;85.10;99309.47;4956133;29;1222;-92
2022/04/05 07:09:27;;;;;;;;;;;;;;;6.90;85.30;99306.41;4956404;28;1253;-91
2022/04/05 07:11:52;;;;;;;;;;;;;;;6.86;84.04;99305.38;4956327;29;1291;-91
2022/04/05 07:14:17;;;;;;;;;;;;;;;6.72;83.86;99316.13;4955908;29;1214;-91
2022/04/05 07:16:42;;;;;;;;;;;;;;;6.85;83.33;99312.72;4956111;28;1202;-91
2022/04/05 07:19:07;;;;;;;;;;;;;;;6.86;83.39;99305.38;4955648;28;1895;-91
2022/04/05 07:21:32;;;;;;;;;;;;;;;6.90;83.07;99300.97;4956168;29;951;-91
2022/04/05 07:23:57;;;;;;;;;;;;;;;6.94;82.73;99302.88;4955257;28;890;-91
2022/04/05 07:26:23;;;;;;;;;;;;;;;6.96;82.39;99308.84;4955486;28;969;-91
2022/04/05 07:28:48;;;;;;;;;;;;;;;7.02;82.15;99310.41;4956704;28;798;-91
2022/04/05 07:31:14;;;;;;;;;;;;;;;7.01;82.03;99308.78;4955400;28;1316;-91
2022/04/05 07:33:39;;;;;;;;;;;;;;;6.97;82.14;99318.63;4955216;28;1178;-91
2022/04/05 07:36:04;;;;;;;;;;;;;;;6.87;81.64;99313.25;4955389;28;1221;-91
2022/04/05 07:38:29;;;;;;;;;;;;;;;6.93;82.56;99309.41;4955134;28;1915;-91
2022/04/05 07:40:54;;;;;;;;;;;;;;;6.93;83.30;99314.84;4955092;28;1202;-91
2022/04/05 07:43:21;;;;;;;;;;;;;;;6.93;83.43;99314.03;4955284;29;1265;-91
2022/04/05 07:45:49;;;;;;;;;;;;;;;6.95;82.46;99311.84;4955216;28;1305;-92
2022/04/05 07:48:15;;;;;;;;;;;;;;;7.06;82.64;99314.16;4955078;28;1290;-91
2022/04/05 07:50:40;;;;;;;;;;;;;;;7.13;82.82;99311.13;4955000;28;1215;-92
2022/04/05 07:53:05;;;;;;;;;;;;;;;6.99;83.28;99316.41;4954862;28;1300;-91
2022/04/05 07:55:31;;;;;;;;;;;;;;;6.93;83.63;99317.56;4971133;28;1181;-91
2022/04/05 07:57:56;;;;;;;;;;;;;;;6.95;83.36;99315.38;4954860;28;1966;-91
2022/04/05 08:00:23;;;;;;;;;;;;;;;6.98;82.80;99312.06;4955732;29;1672;-92
2022/04/05 08:02:48;;;;;;;;;;;;;;;7.02;83.79;99315.84;4954981;29;1210;-91
2022/04/05 08:05:14;;;;;;;;;;;;;;;6.91;83.77;99310.78;4954794;28;1270;-91
2022/04/05 08:07:39;;;;;;;;;;;;;;;6.92;84.03;99313.22;4954919;28;1224;-91
2022/04/05 08:10:05;;;;;;;;;;;;;;;7.13;84.47;99316.56;4954747;28;1198;-91
2022/04/05 08:12:42;;;;;;;;;;;;;;;7.09;83.72;99312.78;4954919;29;1288;-91
2022/04/05 08:15:08;;;;;;;;;;;;;;;7.06;83.48;99314.16;4954811;29;1217;-91
2022/04/05 08:17:33;;;;;;;;;;;;;;;7.14;83.97;99316.28;4954727;29;1176;-92
2022/04/05 08:19:58;;;;;;;;;;;;;;;7.25;83.56;99316.16;4954481;29;1961;-91
2022/04/05 08:22:23;;;;;;;;;;;;;;;7.23;83.95;99314.53;4954886;29;966;-91
2022/04/05 08:24:48;;;;;;;;;;;;;;;7.28;84.03;99308.25;4954392;28;965;-91
2022/04/05 08:27:13;;;;;;;;;;;;;;;7.27;83.65;99311.25;4954625;29;1213;-91
2022/04/05 08:29:41;;;;;;;;;;;;;;;7.39;84.00;99312.50;4954625;28;1225;-91
2022/04/05 08:32:06;;;;;;;;;;;;;;;7.57;83.72;99314.44;4954535;28;1213;-91
2022/04/05 08:34:31;;;;;;;;;;;;;;;7.53;82.56;99315.34;4954424;29;1196;-91
2022/04/05 08:36:57;;;;;;;;;;;;;;;7.40;82.05;99316.81;4956072;29;933;-92
2022/04/05 08:39:22;;;;;;;;;;;;;;;7.35;82.33;99314.16;4954312;29;1899;-91
2022/04/05 08:41:48;;;;;;;;;;;;;;;7.36;82.74;99318.50;4954667;29;1214;-91
2022/04/05 08:44:16;;;;;;;;;;;;;;;7.35;82.30;99319.59;4954409;28;1206;-92
2022/04/05 08:46:41;;;;;;;;;;;;;;;7.45;82.22;99318.69;4957370;29;1241;-91
2022/04/05 08:49:07;;;;;;;;;;;;;;;7.34;81.62;99314.44;4984629;22;1983;-89
2022/04/05 08:51:32;;;;;;;;;;;;;;;7.36;81.70;99315.78;4960037;28;1343;-89
2022/04/05 08:53:58;;;;;;;;;;;;;;;7.55;82.15;99319.41;4960910;28;1257;-89
2022/04/05 08:56:26;;;;;;;;;;;;;;;7.50;81.64;99321.34;4961185;28;1198;-88
2022/04/05 08:58:52;;;;;;;;;;;;;;;7.39;82.18;99317.13;4961052;28;1914;-91
2022/04/05 09:01:17;;;;;;;;;;;;;;;7.54;82.00;99319.69;4957818;28;1291;-91
2022/04/05 09:03:42;;;;;;;;;;;;;;;7.57;81.99;99319.13;4941489;28;1305;-91
2022/04/05 09:06:22;;;;;;;;;;;;;;;7.52;81.67;99317.25;4959051;28;989;-92
2022/04/05 09:08:48;;;;;;;;;;;;;;;7.57;82.60;99325.34;4941700;29;1259;-90
2022/04/05 09:11:13;;;;;;;;;;;;;;;7.44;83.02;99322.50;4941639;29;1337;-90
2022/04/05 09:13:39;;;;;;;;;;;;;;;7.33;83.60;99332.69;4941456;29;1177;-91
2022/04/05 09:16:05;;;;;;;;;;;;;;;7.40;84.80;99332.38;4941585;29;1381;-92
2022/04/05 09:18:33;;;;;;;;;;;;;;;7.53;84.98;99337.13;4941314;28;1911;-91
2022/04/05 09:20:58;;;;;;;;;;;;;;;7.58;84.79;99334.31;4941719;29;1323;-90
2022/04/05 09:23:27;;;;;;;;;;;;;;;7.60;84.75;99329.41;4958511;28;1056;-92
2022/04/05 09:26:03;;;;;;;;;;;;;;;7.58;84.47;99340.59;4941541;29;1152;-92
2022/04/05 09:28:32;;;;;;;;;;;;;;;7.40;84.00;99335.09;4941431;29;1407;-89
2022/04/05 09:31:02;;;;;;;;;;;;;;;7.44;84.64;99328.78;4959067;28;1292;-91
2022/04/05 09:33:28;;;;;;;;;;;;;;;7.59;84.77;99331.31;4955956;28;1397;-91
2022/04/05 09:36:02;;;;;;;;;;;;;;;7.71;84.78;99333.66;4960540;28;1233;-91
2022/04/05 09:38:27;;;;;;;;;;;;;;;7.65;84.77;99336.72;4977670;28;1898;-92
2022/04/05 09:40:52;;;;;;;;;;;;;;;7.73;84.90;99325.19;4960275;28;1246;-90
2022/04/05 09:43:18;;;;;;;;;;;;;;;7.85;85.28;99320.94;4959987;28;1229;-90
2022/04/05 09:45:48;;;;;;;;;;;;;;;8.13;84.82;99319.22;4960271;28;1280;-90
2022/04/05 09:48:14;;;;;;;;;;;;;;;8.31;84.46;99320.38;4960200;28;1258;-90
2022/04/05 09:50:55;;;;;;;;;;;;;;;8.51;84.09;99317.34;4960010;28;1314;-91
2022/04/05 09:53:20;;;;;;;;;;;;;;;8.51;84.56;99314.59;4977223;28;1043;-91
2022/04/05 09:55:45;;;;;;;;;;;;;;;8.45;84.18;99315.78;4977883;28;810;-91
2022/04/05 09:58:11;;;;;;;;;;;;;;;8.38;84.74;99317.28;4959895;28;1961;-90
2022/04/05 10:00:36;;;;;;;;;;;;;;;8.25;85.35;99318.81;4977346;28;1198;-91
2022/04/05 10:03:04;;;;;;;;;;;;;;;8.12;86.02;99311.34;4957382;28;1455;-92
2022/04/05 10:05:30;;;;;;;;;;;;;;;8.25;85.79;99310.63;4940755;29;1710;-91
2022/04/05 10:07:56;;;;;;;;;;;;;;;8.36;85.49;99312.13;4940774;29;1178;-91
2022/04/05 10:10:21;;;;;;;;;;;;;;;8.42;85.30;99305.47;4957895;28;1190;-90
2022/04/05 10:12:47;;;;;;;;;;;;;;;8.52;85.49;99308.06;4923701;29;1549;-91
2022/04/05 10:15:12;;;;;;;;;;;;;;;8.68;85.18;99300.44;4930301;29;1301;-92
2022/04/05 10:17:43;;;;;;;;;;;;;;;8.75;85.06;99305.53;4929303;29;1385;-90
2022/04/05 10:20:09;;;;;;;;;;;;;;;8.81;84.91;99298.88;4926075;29;1882;-90
2022/04/05 10:22:34;;;;;;;;;;;;;;;8.83;85.27;99294.75;4932389;29;1341;-89
2022/04/05 10:25:00;;;;;;;;;;;;;;;8.68;85.11;99303.97;4935577;29;1313;-90
2022/04/05 10:27:28;;;;;;;;;;;;;;;8.46;85.79;99301.06;4924188;29;1403;-90
2022/04/05 10:30:02;;;;;;;;;;;;;;;8.50;85.60;99288.47;4921604;29;1391;-92
2022/04/05 10:33:23;;;;;;;;;;;;;;;8.60;85.67;99295.66;4924552;29;1377;-89
2022/04/05 10:39:42;;;;;;;;;;;;;;;8.64;85.79;99281.16;4913245;29;1961;-90
2022/04/05 10:48:55;;;;;;;;;;;;;;;8.84;85.49;99271.81;4823689;29;1338;-90
2022/04/05 10:51:35;;;;;;;;;;;;;;;8.90;85.57;99273.34;4876599;29;1508;-90
2022/04/05 10:54:20;;;;;;;;;;;;;;;8.98;86.20;99263.66;4905131;29;1827;-91
2022/04/05 10:57:26;;;;;;;;;;;;;;;8.92;85.38;99264.88;4918122;29;1375;-89
2022/04/05 11:00:12;;;;;;;;;;;;;;;8.84;86.05;99262.81;4926429;29;1904;-88
2022/04/05 11:02:37;;;;;;;;;;;;;;;8.82;86.06;99265.84;4950945;29;1317;-91
2022/04/05 11:05:03;;;;;;;;;;;;;;;8.91;86.38;99255.88;4936494;29;1345;-88
2022/04/05 11:07:29;;;;;;;;;;;;;;;8.88;86.24;99267.38;4929470;29;1298;-89
2022/04/05 11:10:10;;;;;;;;;;;;;;;8.67;86.30;99257.94;4921331;29;1358;-90
2022/04/05 11:12:42;;;;;;;;;;;;;;;8.57;86.38;99253.44;4933728;29;1385;-88
2022/04/05 11:15:10;;;;;;;;;;;;;;;8.51;86.64;99254.63;4921599;29;1325;-89
2022/04/05 11:17:37;;;;;;;;;;;;;;;8.60;86.78;99255.56;4931345;29;1350;-88
2022/04/05 11:20:03;;;;;;;;;;;;;;;8.75;86.43;99242.78;4956027;29;1882;-89
2022/04/05 11:22:28;;;;;;;;;;;;;;;8.70;86.71;99252.66;4939174;29;1327;-89
2022/04/05 11:24:55;;;;;;;;;;;;;;;8.73;86.44;99252.06;4938038;29;1449;-89
2022/04/05 11:27:24;;;;;;;;;;;;;;;8.80;86.39;99256.34;4927485;29;1347;-88
2022/04/05 11:29:50;;;;;;;;;;;;;;;8.82;86.72;99251.41;4920454;29;1357;-88
2022/04/05 11:32:15;;;;;;;;;;;;;;;8.87;86.65;99243.91;4930085;29;1351;-89
2022/04/05 11:34:46;;;;;;;;;;;;;;;8.90;86.73;99256.16;4930049;29;1376;-88
2022/04/05 11:37:11;;;;;;;;;;;;;;;8.93;86.49;99244.66;4924648;29;1384;-89
2022/04/05 11:39:40;;;;;;;;;;;;;;;9.06;86.50;99249.31;4933162;29;1886;-88
2022/04/05 11:42:05;;;;;;;;;;;;;;;9.15;86.08;99249.44;4951645;29;1308;-88
2022/04/05 11:44:30;;;;;;;;;;;;;;;9.23;86.46;99248.72;4921209;29;1314;-88
2022/04/05 11:46:58;;;;;;;;;;;;;;;9.23;86.19;99244.09;4928109;29;1411;-88
2022/04/05 11:49:23;;;;;;;;;;;;;;;9.14;85.91;99248.63;4954920;28;1416;-88
2022/04/05 11:51:48;;;;;;;;;;;;;;;9.02;86.56;99253.75;4952147;29;1390;-89
2022/04/05 11:54:17;;;;;;;;;;;;;;;8.96;86.91;99244.84;4937132;29;1396;-89
2022/04/05 11:56:43;;;;;;;;;;;;;;;8.87;87.20;99246.66;4933717;28;1416;-89
2022/04/05 11:59:09;;;;;;;;;;;;;;;8.78;87.44;99247.63;4925989;28;1966;-89
2022/04/05 12:01:39;;;;;;;;;;;;;;;8.82;87.30;99248.66;4927343;29;1344;-89
2022/04/05 12:04:06;;;;;;;;;;;;;;;8.83;87.91;99242.91;4936731;29;1336;-89
2022/04/05 12:06:33;;;;;;;;;;;;;;;8.86;87.98;99246.94;4934681;29;1385;-89
2022/04/05 12:09:00;;;;;;;;;;;;;;;8.79;87.66;99249.25;4919795;29;1373;-89
2022/04/05 12:11:26;;;;;;;;;;;;;;;8.72;87.47;99238.72;4926322;28;1336;-88
2022/04/05 12:13:52;;;;;;;;;;;;;;;8.79;87.27;99241.88;4925070;29;1408;-88
2022/04/05 12:16:17;;;;;;;;;;;;;;;8.86;87.07;99247.75;4923123;29;1229;-90
2022/04/05 12:18:42;;;;;;;;;;;;;;;8.88;86.88;99236.53;4942836;29;1969;-89
2022/04/05 12:21:08;;;;;;;;;;;;;;;8.91;87.53;99241.41;4933829;29;1333;-88
2022/04/05 12:23:38;;;;;;;;;;;;;;;8.90;85.94;99234.34;4931269;29;1443;-88
2022/04/05 12:26:14;;;;;;;;;;;;;;;8.93;86.42;99244.66;4935302;29;1333;-89
2022/04/05 12:28:43;;;;;;;;;;;;;;;8.98;86.55;99233.63;4943601;29;1395;-89
2022/04/05 12:31:19;;;;;;;;;;;;;;;9.08;87.12;99239.72;4937909;29;1298;-88
2022/04/05 12:33:56;;;;;;;;;;;;;;;9.06;86.65;99232.94;4955511;29;834;-89
2022/04/05 12:36:21;;;;;;;;;;;;;;;9.02;86.03;99235.44;4936964;29;1281;-88
2022/04/05 12:38:47;;;;;;;;;;;;;;;9.11;85.44;99232.84;4927253;29;1955;-89
2022/04/05 12:41:14;;;;;;;;;;;;;;;9.21;84.99;99240.84;4943640;29;1285;-89
2022/04/05 12:43:39;;;;;;;;;;;;;;;9.34;84.21;99228.31;4920990;29;1418;-89
2022/04/05 12:46:09;;;;;;;;;;;;;;;9.51;84.70;99217.59;4919661;29;1397;-89
2022/04/05 12:48:34;;;;;;;;;;;;;;;9.71;83.89;99221.81;4942042;29;1310;-90
2022/04/05 12:50:59;;;;;;;;;;;;;;;9.83;82.59;99214.72;4931980;29;1391;-89
2022/04/05 12:53:30;;;;;;;;;;;;;;;9.90;82.94;99217.03;4933192;29;1467;-89
2022/04/05 12:55:56;;;;;;;;;;;;;;;10.14;82.27;99208.53;4946106;28;1409;-90
2022/04/05 12:58:48;;;;;;;;;;;;;;;10.41;80.88;99197.53;4954834;28;1959;-88
2022/04/05 13:01:14;;;;;;;;;;;;;;;10.53;81.79;99197.78;4936564;28;1506;-89
2022/04/05 13:03:39;;;;;;;;;;;;;;;10.58;81.18;99202.31;4936020;29;1437;-90
2022/04/05 13:06:20;;;;;;;;;;;;;;;10.45;81.07;99195.00;4938232;29;1463;-90
2022/04/05 13:08:45;;;;;;;;;;;;;;;10.58;80.75;99211.34;4938399;29;1260;-90
2022/04/05 13:11:25;;;;;;;;;;;;;;;10.54;80.46;99185.72;4955157;29;1469;-90
2022/04/05 13:13:59;;;;;;;;;;;;;;;10.45;81.30;99195.00;4937576;29;1350;-90
2022/04/05 13:16:25;;;;;;;;;;;;;;;10.37;81.65;99193.00;4955536;29;885;-90
2022/04/05 13:18:51;;;;;;;;;;;;;;;10.24;82.42;99192.75;4934684;29;1960;-90
2022/04/05 13:21:17;;;;;;;;;;;;;;;10.10;83.07;99191.97;4947159;29;1793;-89
2022/04/05 13:23:43;;;;;;;;;;;;;;;9.97;82.78;99198.28;4937429;29;1525;-90
2022/04/05 13:26:21;;;;;;;;;;;;;;;9.92;83.05;99194.84;4955009;29;1327;-89
2022/04/05 13:28:46;;;;;;;;;;;;;;;9.87;84.30;99209.44;4937567;29;1368;-90
2022/04/05 13:31:13;;;;;;;;;;;;;;;9.86;84.77;99186.78;4938072;29;1539;-89
2022/04/05 13:33:39;;;;;;;;;;;;;;;9.96;85.47;99193.91;4941242;29;1194;-89
2022/04/05 13:36:05;;;;;;;;;;;;;;;9.95;85.26;99196.97;4941487;29;1554;-89
2022/04/05 13:38:31;;;;;;;;;;;;;;;9.73;85.55;99176.66;4941405;29;1894;-90
2022/04/05 13:40:56;;;;;;;;;;;;;;;9.79;86.01;99193.75;4941121;29;1262;-90
2022/04/05 13:43:21;;;;;;;;;;;;;;;9.72;86.59;99196.09;4940855;29;824;-91
2022/04/05 13:45:48;;;;;;;;;;;;;;;9.64;86.67;99194.09;4941257;29;1084;-89
2022/04/05 13:48:13;;;;;;;;;;;;;;;9.66;86.83;99189.94;4941158;29;1704;-90
2022/04/05 13:50:38;;;;;;;;;;;;;;;9.63;85.61;99192.47;4958215;29;1111;-91
2022/04/05 13:53:03;;;;;;;;;;;;;;;9.63;86.60;99193.28;4940937;29;1305;-88
2022/04/05 13:55:28;;;;;;;;;;;;;;;9.86;85.84;99196.91;4941171;29;1194;-90
2022/04/05 13:57:53;;;;;;;;;;;;;;;10.22;84.77;99194.97;4941281;29;1246;-90
2022/04/05 14:00:19;;;;;;;;;;;;;;;10.40;84.68;99186.91;4946150;29;1971;-90
2022/04/05 14:02:44;;;;;;;;;;;;;;;10.27;84.84;99182.31;4949142;28;1372;-90
2022/04/05 14:05:09;;;;;;;;;;;;;;;10.16;85.08;99196.19;4959904;28;993;-90
2022/04/05 14:07:37;;;;;;;;;;;;;;;10.01;84.31;99185.63;4960088;28;1312;-90
2022/04/05 14:10:02;;;;;;;;;;;;;;;9.86;85.61;99184.03;4942752;29;1309;-90
2022/04/05 14:12:27;;;;;;;;;;;;;;;9.79;85.79;99189.09;4940844;29;1104;-90
2022/04/05 14:14:52;;;;;;;;;;;;;;;9.78;86.37;99186.69;4940389;29;1532;-91
2022/04/05 14:17:17;;;;;;;;;;;;;;;9.77;87.20;99199.56;4940474;29;1612;-90
2022/04/05 14:19:42;;;;;;;;;;;;;;;9.78;88.08;99190.22;4957669;28;1890;-91
2022/04/05 14:22:07;;;;;;;;;;;;;;;9.82;87.63;99190.41;4940612;29;1649;-89
2022/04/05 14:24:33;;;;;;;;;;;;;;;9.83;86.88;99184.66;4939843;29;1297;-90
2022/04/05 14:26:58;;;;;;;;;;;;;;;9.83;86.83;99186.56;4944186;29;1360;-90
2022/04/05 14:29:23;;;;;;;;;;;;;;;9.74;87.15;99196.63;4921299;29;1210;-91
2022/04/05 14:31:48;;;;;;;;;;;;;;;9.72;88.12;99185.16;4937560;29;1254;-91
2022/04/05 14:34:14;;;;;;;;;;;;;;;9.69;88.28;99178.41;4932745;29;1278;-91
2022/04/05 14:36:39;;;;;;;;;;;;;;;9.76;88.07;99173.34;4921493;29;1300;-90
2022/04/05 14:39:06;;;;;;;;;;;;;;;9.98;87.48;99171.75;4938191;29;1894;-91
2022/04/05 14:41:32;;;;;;;;;;;;;;;10.22;86.04;99178.56;4955915;29;1301;-90
2022/04/05 14:43:59;;;;;;;;;;;;;;;10.57;85.42;99170.59;4920730;29;1609;-92
2022/04/05 14:46:25;;;;;;;;;;;;;;;11.54;83.41;99172.31;4934954;29;1522;-90
2022/04/05 14:48:50;;;;;;;;;;;;;;;11.45;80.45;99174.22;4940528;29;1115;-91
2022/04/05 14:51:15;;;;;;;;;;;;;;;11.83;80.56;99168.97;4940878;29;1194;-90
2022/04/05 14:53:42;;;;;;;;;;;;;;;12.35;76.39;99158.81;4940922;29;1337;-89
2022/04/05 14:56:07;;;;;;;;;;;;;;;12.24;77.29;99156.75;4940672;29;1162;-88
2022/04/05 14:58:32;;;;;;;;;;;;;;;11.88;79.04;99163.34;4940773;29;1969;-88